createdAt,value
2023-03-14T00:00:15.816Z,9.60
2023-03-14T00:02:53.234Z,9.60
2023-03-14T00:05:25.038Z,9.60
2023-03-14T00:07:56.765Z,9.50
2023-03-14T00:10:28.581Z,9.50
2023-03-14T00:13:00.301Z,9.50
2023-03-14T00:15:36.538Z,9.50
2023-03-14T00:18:08.251Z,9.50
2023-03-14T00:20:40.020Z,9.50
2023-03-14T00:23:11.838Z,9.50
2023-03-14T00:25:43.604Z,9.40
2023-03-14T00:28:15.290Z,9.40
2023-03-14T00:30:47.032Z,9.40
2023-03-14T00:33:18.935Z,9.40
2023-03-14T00:36:02.694Z,9.40
2023-03-14T00:38:34.859Z,9.40
2023-03-14T00:41:09.321Z,9.50
2023-03-14T00:43:41.233Z,9.40
2023-03-14T00:46:13.520Z,9.40
2023-03-14T00:48:46.781Z,9.40
2023-03-14T00:51:18.569Z,9.40
2023-03-14T00:53:50.348Z,9.40
2023-03-14T00:56:22.076Z,9.40
2023-03-14T00:58:57.382Z,9.40
2023-03-14T01:01:29.186Z,9.40
2023-03-14T01:04:01.603Z,9.40
2023-03-14T01:06:33.419Z,9.30
2023-03-14T01:09:05.433Z,9.30
2023-03-14T01:11:37.509Z,9.30
2023-03-14T01:14:09.303Z,9.30
2023-03-14T01:16:41.120Z,9.30
2023-03-14T01:19:12.897Z,9.30
2023-03-14T01:21:44.643Z,9.20
2023-03-14T01:24:16.962Z,9.20
2023-03-14T01:26:48.857Z,9.20
2023-03-14T01:29:20.708Z,9.20
2023-03-14T01:31:52.533Z,9.20
2023-03-14T01:34:24.554Z,9.20
2023-03-14T01:36:56.692Z,9.20
2023-03-14T01:39:29.371Z,9.20
2023-03-14T01:42:02.193Z,9.20
2023-03-14T01:44:57.141Z,9.20
2023-03-14T01:47:29.031Z,9.20
2023-03-14T01:50:13.240Z,9.20
2023-03-14T01:52:50.074Z,9.20
2023-03-14T01:55:25.961Z,9.20
2023-03-14T01:58:04.921Z,9.30
2023-03-14T02:00:36.862Z,9.30
2023-03-14T02:03:14.697Z,9.30
2023-03-14T02:05:47.938Z,9.30
2023-03-14T02:08:25.393Z,9.30
2023-03-14T02:11:01.367Z,9.40
2023-03-14T02:13:52.071Z,9.40
2023-03-14T02:21:43.933Z,9.30
2023-03-14T02:24:35.519Z,9.30
2023-03-14T02:27:15.614Z,9.20
2023-03-14T02:30:05.818Z,9.20
2023-03-14T02:32:42.200Z,9.10
2023-03-14T02:35:19.607Z,9.20
2023-03-14T02:38:11.581Z,9.10
2023-03-14T02:40:47.377Z,9.10
2023-03-14T02:43:19.273Z,9.10
2023-03-14T02:45:56.903Z,9.10
2023-03-14T02:48:39.769Z,9.10
2023-03-14T02:51:12.821Z,9.10
2023-03-14T02:53:44.678Z,9.10
2023-03-14T02:56:18.331Z,9.00
2023-03-14T02:58:50.076Z,9.00
2023-03-14T03:01:32.495Z,9.00
2023-03-14T03:04:04.530Z,9.00
2023-03-14T03:06:36.268Z,8.90
2023-03-14T03:09:08.039Z,8.90
2023-03-14T03:11:40.747Z,8.90
2023-03-14T03:14:14.507Z,8.90
2023-03-14T03:16:46.359Z,8.90
2023-03-14T03:19:18.850Z,9.00
2023-03-14T03:21:50.612Z,8.90
2023-03-14T03:24:22.418Z,6.80
2023-03-14T03:26:54.593Z,8.90
2023-03-14T03:29:26.517Z,9.00
2023-03-14T03:31:58.650Z,8.90
2023-03-14T03:34:30.501Z,8.90
2023-03-14T03:37:02.791Z,8.90
2023-03-14T03:39:39.070Z,8.80
2023-03-14T03:42:11.341Z,8.90
2023-03-14T03:49:01.565Z,8.90
2023-03-14T03:51:34.296Z,8.90
2023-03-14T03:54:06.138Z,8.90
2023-03-14T03:56:39.002Z,8.90
2023-03-14T03:59:11.788Z,8.80
2023-03-14T04:01:43.556Z,8.80
2023-03-14T04:04:15.540Z,8.80
2023-03-14T04:06:48.011Z,8.80
2023-03-14T04:09:19.910Z,8.70
2023-03-14T04:11:55.266Z,8.70
2023-03-14T04:14:27.005Z,8.70
2023-03-14T04:17:10.367Z,8.70
2023-03-14T04:19:43.130Z,8.70
2023-03-14T04:22:15.839Z,8.60
2023-03-14T04:24:54.297Z,8.60
2023-03-14T04:27:26.979Z,8.60
2023-03-14T04:29:59.755Z,8.60
2023-03-14T04:32:50.349Z,8.60
2023-03-14T04:35:23.505Z,8.60
2023-03-14T04:38:00.109Z,8.50
2023-03-14T04:40:32.216Z,8.50
2023-03-14T04:43:11.026Z,8.50
2023-03-14T04:45:45.599Z,8.50
2023-03-14T04:48:17.455Z,8.50
2023-03-14T04:50:49.745Z,8.50
2023-03-14T04:53:22.000Z,8.50
2023-03-14T04:55:56.744Z,8.50
2023-03-14T04:58:31.010Z,8.50
2023-03-14T05:01:05.806Z,8.50
2023-03-14T05:03:46.151Z,8.50
2023-03-14T05:06:23.742Z,8.50
2023-03-14T05:09:07.861Z,8.50
2023-03-14T05:11:58.328Z,8.40
2023-03-14T05:14:30.053Z,8.40
2023-03-14T05:17:24.694Z,8.40
2023-03-14T05:20:15.023Z,8.40
2023-03-14T05:23:07.375Z,8.40
2023-03-14T05:25:51.401Z,8.40
2023-03-14T05:28:44.914Z,8.40
2023-03-14T05:31:16.673Z,8.40
2023-03-14T05:33:58.490Z,8.40
2023-03-14T05:36:39.415Z,8.40
2023-03-14T05:39:25.277Z,8.40
2023-03-14T05:42:08.821Z,8.40
2023-03-14T05:44:59.321Z,8.40
2023-03-14T05:47:48.110Z,8.40
2023-03-14T05:50:42.718Z,8.40
2023-03-14T05:53:34.760Z,8.40
2023-03-14T05:56:21.132Z,8.40
2023-03-14T05:59:04.424Z,8.40
2023-03-14T06:01:44.244Z,8.40
2023-03-14T06:04:21.288Z,8.40
2023-03-14T06:06:57.492Z,8.40
2023-03-14T06:09:29.444Z,8.40
2023-03-14T06:12:04.929Z,8.40
2023-03-14T06:14:42.746Z,8.40
2023-03-14T06:17:14.724Z,8.50
2023-03-14T06:20:04.351Z,8.50
2023-03-14T06:22:37.226Z,8.50
2023-03-14T06:25:10.717Z,8.50
2023-03-14T06:27:42.483Z,8.50
2023-03-14T06:30:15.112Z,8.50
2023-03-14T06:32:46.946Z,8.50
2023-03-14T06:35:20.580Z,8.50
2023-03-14T06:37:52.865Z,8.50
2023-03-14T06:40:24.722Z,8.50
2023-03-14T06:43:01.552Z,8.50
2023-03-14T06:45:35.614Z,8.60
2023-03-14T06:48:08.462Z,8.70
2023-03-14T06:50:45.049Z,8.70
2023-03-14T06:53:16.842Z,8.70
2023-03-14T06:55:49.588Z,8.70
2023-03-14T06:58:22.961Z,8.70
2023-03-14T07:00:55.672Z,8.70
2023-03-14T07:03:31.308Z,8.70
2023-03-14T07:06:04.863Z,8.70
2023-03-14T07:08:39.907Z,8.80
2023-03-14T07:11:12.253Z,8.80
2023-03-14T07:13:44.578Z,8.90
2023-03-14T07:16:16.844Z,8.80
2023-03-14T07:18:50.211Z,8.90
2023-03-14T07:21:22.035Z,8.90
2023-03-14T07:23:53.860Z,8.90
2023-03-14T07:26:26.891Z,9.00
2023-03-14T07:28:58.805Z,9.00
2023-03-14T07:31:31.154Z,9.00
2023-03-14T07:34:03.284Z,9.00
2023-03-14T07:36:39.546Z,9.10
2023-03-14T07:39:11.298Z,9.10
2023-03-14T07:41:50.212Z,9.10
2023-03-14T07:44:48.226Z,9.10
2023-03-14T07:47:20.059Z,9.20
2023-03-14T07:49:51.761Z,9.10
2023-03-14T07:52:25.176Z,9.10
2023-03-14T07:54:56.963Z,9.10
2023-03-14T07:57:28.729Z,9.10
2023-03-14T08:00:00.470Z,9.20
2023-03-14T08:02:32.231Z,9.10
2023-03-14T08:05:04.892Z,9.20
2023-03-14T08:07:36.636Z,9.10
2023-03-14T08:10:09.802Z,9.10
2023-03-14T08:12:41.549Z,9.20
2023-03-14T08:15:13.366Z,9.30
2023-03-14T08:17:45.153Z,9.30
2023-03-14T08:20:17.370Z,9.30
2023-03-14T08:22:49.350Z,9.40
2023-03-14T08:25:21.077Z,9.50
2023-03-14T08:27:53.172Z,9.50
2023-03-14T08:30:25.272Z,9.60
2023-03-14T08:33:00.254Z,9.70
2023-03-14T08:35:32.083Z,9.80
2023-03-14T08:38:03.806Z,9.80
2023-03-14T08:40:35.593Z,9.80
2023-03-14T08:43:07.331Z,9.90
2023-03-14T08:45:39.141Z,9.90
2023-03-14T08:48:10.969Z,9.00
2023-03-14T08:50:42.825Z,10.20
2023-03-14T08:53:14.746Z,10.30
2023-03-14T08:55:46.590Z,10.30
2023-03-14T08:58:18.395Z,10.40
2023-03-14T09:00:50.721Z,10.40
2023-03-14T09:03:24.101Z,10.50
2023-03-14T09:05:55.979Z,10.60
2023-03-14T09:08:27.773Z,10.70
2023-03-14T09:10:59.524Z,10.80
2023-03-14T09:13:31.257Z,10.90
2023-03-14T09:16:03.106Z,10.80
2023-03-14T09:18:34.894Z,10.80
2023-03-14T09:21:06.945Z,10.80
2023-03-14T09:23:39.706Z,10.80
2023-03-14T09:26:11.450Z,11.00
2023-03-14T09:28:43.343Z,11.10
2023-03-14T09:31:15.982Z,11.20
2023-03-14T09:33:47.736Z,11.20
2023-03-14T09:36:19.613Z,11.30
2023-03-14T09:38:51.343Z,11.20
2023-03-14T09:41:28.676Z,11.20
2023-03-14T09:44:06.184Z,11.30
2023-03-14T09:46:40.381Z,11.20
2023-03-14T09:49:26.148Z,11.30
2023-03-14T09:52:02.477Z,11.40
2023-03-14T09:54:39.742Z,11.50
2023-03-14T09:57:22.436Z,11.50
2023-03-14T10:00:08.098Z,11.60
2023-03-14T10:02:41.234Z,11.70
2023-03-14T10:05:18.825Z,11.80
2023-03-14T10:07:50.719Z,12.20
2023-03-14T10:10:25.320Z,12.10
2023-03-14T10:12:58.333Z,12.20
2023-03-14T10:15:35.295Z,12.40
2023-03-14T10:18:13.779Z,12.50
2023-03-14T10:21:02.510Z,12.40
2023-03-14T10:23:35.644Z,12.30
2023-03-14T10:26:13.082Z,12.10
2023-03-14T10:28:48.835Z,12.10
2023-03-14T10:31:26.838Z,12.20
2023-03-14T10:34:04.639Z,12.30
2023-03-14T10:36:36.421Z,12.70
2023-03-14T10:39:25.615Z,13.00
2023-03-14T10:42:07.932Z,13.30
2023-03-14T10:44:40.754Z,13.30
2023-03-14T10:47:22.986Z,13.10
2023-03-14T10:49:55.690Z,13.10
2023-03-14T10:52:45.772Z,13.20
2023-03-14T10:55:23.967Z,13.10
2023-03-14T10:57:56.064Z,13.00
2023-03-14T11:00:28.007Z,12.80
2023-03-14T11:03:15.363Z,12.60
2023-03-14T11:06:11.043Z,12.50
2023-03-14T11:09:06.527Z,12.40
2023-03-14T11:11:42.908Z,12.40
2023-03-14T11:14:17.381Z,12.40
2023-03-14T11:17:16.906Z,12.40
2023-03-14T11:20:25.601Z,12.40
2023-03-14T11:23:14.618Z,12.40
2023-03-14T11:26:04.968Z,12.30
2023-03-14T11:28:45.048Z,12.20
2023-03-14T11:31:36.383Z,12.20
2023-03-14T11:34:10.931Z,12.20
2023-03-14T11:37:04.892Z,12.20
2023-03-14T11:40:17.122Z,12.30
2023-03-14T11:43:12.665Z,12.30
2023-03-14T11:45:46.114Z,12.30
2023-03-14T11:48:30.224Z,12.40
2023-03-14T11:51:08.043Z,12.40
2023-03-14T11:53:51.841Z,12.50
2023-03-14T11:56:52.360Z,12.60
2023-03-14T11:59:56.513Z,12.60
2023-03-14T12:02:31.268Z,12.60
2023-03-14T12:05:09.098Z,12.70
2023-03-14T12:07:51.176Z,12.90
2023-03-14T12:10:23.046Z,13.20
2023-03-14T12:12:54.961Z,13.60
2023-03-14T12:15:26.867Z,13.70
2023-03-14T12:17:58.902Z,13.90
2023-03-14T12:20:30.737Z,13.80
2023-03-14T12:23:11.175Z,13.70
2023-03-14T12:25:42.907Z,13.50
2023-03-14T12:28:20.676Z,13.40
2023-03-14T12:30:52.424Z,13.30
2023-03-14T12:33:29.347Z,13.00
2023-03-14T12:36:04.871Z,12.90
2023-03-14T12:38:36.626Z,12.80
2023-03-14T12:41:30.386Z,12.80
2023-03-14T12:44:30.872Z,12.70
2023-03-14T12:47:17.912Z,12.70
2023-03-14T12:49:53.218Z,12.70
2023-03-14T12:52:56.488Z,12.70
2023-03-14T12:55:53.927Z,12.70
2023-03-14T12:58:55.384Z,12.80
2023-03-14T13:01:27.276Z,12.90
2023-03-14T13:04:09.335Z,13.00
2023-03-14T13:07:04.470Z,13.00
2023-03-14T13:09:49.583Z,13.00
2023-03-14T13:12:28.878Z,12.90
2023-03-14T13:15:01.928Z,12.80
2023-03-14T13:17:37.375Z,12.70
2023-03-14T13:20:27.404Z,12.60
2023-03-14T13:22:59.145Z,12.50
2023-03-14T13:25:35.492Z,12.30
2023-03-14T13:28:11.283Z,12.30
2023-03-14T13:30:45.930Z,12.20
2023-03-14T13:33:23.753Z,12.00
2023-03-14T13:36:01.119Z,11.80
2023-03-14T13:38:36.150Z,11.70
2023-03-14T13:41:09.213Z,11.90
2023-03-14T13:43:42.716Z,12.20
2023-03-14T13:46:23.311Z,12.70
2023-03-14T13:49:04.083Z,13.10
2023-03-14T13:51:35.871Z,13.20
2023-03-14T13:54:18.988Z,13.10
2023-03-14T13:57:03.849Z,13.10
2023-03-14T13:59:36.097Z,12.90
2023-03-14T14:02:17.979Z,12.90
2023-03-14T14:04:50.285Z,12.60
2023-03-14T14:07:22.724Z,12.40
2023-03-14T14:09:55.764Z,12.10
2023-03-14T14:12:36.536Z,11.70
2023-03-14T14:15:14.767Z,11.30
2023-03-14T14:17:51.905Z,11.00
2023-03-14T14:20:37.142Z,10.70
2023-03-14T14:23:26.172Z,10.60
2023-03-14T14:25:59.095Z,10.60
2023-03-14T14:28:33.728Z,10.60
2023-03-14T14:31:26.110Z,10.60
2023-03-14T14:34:03.230Z,10.50
2023-03-14T14:36:45.631Z,10.40
2023-03-14T14:39:29.763Z,10.30
2023-03-14T14:42:01.508Z,10.30
2023-03-14T14:44:35.594Z,10.30
2023-03-14T14:47:07.320Z,11.30
2023-03-14T14:49:39.624Z,10.40
2023-03-14T14:52:15.623Z,10.40
2023-03-14T14:54:51.806Z,10.40
2023-03-14T14:57:26.066Z,10.40
2023-03-14T15:00:06.090Z,10.40
2023-03-14T15:02:45.169Z,10.40
2023-03-14T15:05:22.490Z,10.20
2023-03-14T15:07:54.315Z,10.20
2023-03-14T15:10:26.953Z,10.10
2023-03-14T15:12:58.852Z,10.10
2023-03-14T15:15:32.028Z,10.20
2023-03-14T15:18:03.834Z,9.10
2023-03-14T15:20:35.591Z,9.90
2023-03-14T15:23:16.160Z,9.90
2023-03-14T15:25:55.543Z,9.90
2023-03-14T15:28:30.420Z,9.80
2023-03-14T15:31:02.196Z,9.90
2023-03-14T15:33:34.035Z,9.80
2023-03-14T15:36:16.169Z,9.80
2023-03-14T15:38:47.963Z,9.70
2023-03-14T15:41:20.191Z,9.60
2023-03-14T15:43:52.528Z,9.50
2023-03-14T15:46:24.717Z,9.30
2023-03-14T15:48:56.583Z,9.20
2023-03-14T15:51:28.363Z,9.00
2023-03-14T15:54:00.127Z,8.80
2023-03-14T15:56:32.254Z,8.70
2023-03-14T15:59:04.597Z,8.70
2023-03-14T16:01:36.750Z,8.60
2023-03-14T16:04:08.566Z,8.60
2023-03-14T16:06:40.522Z,8.60
2023-03-14T16:09:12.820Z,8.60
2023-03-14T16:11:47.272Z,8.60
2023-03-14T16:14:19.046Z,8.60
2023-03-14T16:16:52.416Z,8.60
2023-03-14T16:19:29.246Z,8.50
2023-03-14T16:22:00.937Z,8.50
2023-03-14T16:24:32.658Z,8.30
2023-03-14T16:27:05.100Z,8.20
2023-03-14T16:29:37.608Z,8.20
2023-03-14T16:32:09.869Z,8.20
2023-03-14T16:34:41.611Z,8.10
2023-03-14T16:37:13.619Z,8.00
2023-03-14T16:40:10.113Z,8.00
2023-03-14T16:42:46.863Z,8.00
2023-03-14T16:45:26.940Z,8.00
2023-03-14T16:47:58.749Z,7.90
2023-03-14T16:50:30.583Z,7.90
2023-03-14T16:53:03.035Z,8.00
2023-03-14T16:55:34.793Z,7.90
2023-03-14T16:58:07.061Z,8.00
2023-03-14T17:00:39.422Z,8.00
2023-03-14T17:03:11.798Z,7.90
2023-03-14T17:05:52.418Z,7.90
2023-03-14T17:08:24.237Z,7.80
2023-03-14T17:10:56.165Z,7.80
2023-03-14T17:13:27.956Z,7.80
2023-03-14T17:16:01.776Z,7.70
2023-03-14T17:18:33.774Z,7.70
2023-03-14T17:21:06.279Z,7.70
2023-03-14T17:23:38.621Z,7.70
2023-03-14T17:26:12.370Z,7.60
2023-03-14T17:28:44.824Z,7.60
2023-03-14T17:31:18.994Z,7.60
2023-03-14T17:33:51.894Z,7.50
2023-03-14T17:36:26.524Z,7.50
2023-03-14T17:38:58.692Z,7.40
2023-03-14T17:41:30.600Z,7.40
2023-03-14T17:44:02.424Z,7.40
2023-03-14T17:46:34.302Z,7.40
2023-03-14T17:49:06.103Z,7.40
2023-03-14T17:51:37.884Z,7.40
2023-03-14T17:54:09.728Z,7.40
2023-03-14T17:56:43.858Z,7.40
2023-03-14T17:59:16.158Z,7.40
2023-03-14T18:01:48.032Z,7.40
2023-03-14T18:04:21.153Z,7.40
2023-03-14T18:06:52.933Z,7.40
2023-03-14T18:09:24.672Z,7.40
2023-03-14T18:12:06.987Z,7.40
2023-03-14T18:14:39.607Z,7.40
2023-03-14T18:17:13.310Z,7.40
2023-03-14T18:19:45.107Z,7.50
2023-03-14T18:22:16.852Z,7.40
2023-03-14T18:24:48.669Z,7.40
2023-03-14T18:27:20.387Z,7.50
2023-03-14T18:29:52.226Z,8.50
2023-03-14T18:32:24.125Z,7.40
2023-03-14T18:34:55.932Z,7.30
2023-03-14T18:37:27.704Z,7.30
2023-03-14T18:39:59.517Z,7.30
2023-03-14T18:42:31.294Z,7.30
2023-03-14T18:45:03.185Z,7.30
2023-03-14T18:47:36.675Z,7.30
2023-03-14T18:50:09.535Z,7.30
2023-03-14T18:52:41.284Z,7.30
2023-03-14T18:55:13.915Z,7.20
2023-03-14T18:57:45.724Z,7.20
2023-03-14T19:00:19.131Z,7.10
2023-03-14T19:02:52.655Z,7.10
2023-03-14T19:05:24.414Z,7.10
2023-03-14T19:07:58.082Z,7.00
2023-03-14T19:10:32.300Z,7.00
2023-03-14T19:13:04.013Z,7.00
2023-03-14T19:15:35.753Z,7.00
2023-03-14T19:18:10.724Z,6.90
2023-03-14T19:20:43.306Z,6.80
2023-03-14T19:23:15.037Z,6.80
2023-03-14T19:25:46.785Z,6.90
2023-03-14T19:28:18.879Z,6.90
2023-03-14T19:30:51.401Z,6.90
2023-03-14T19:33:23.150Z,6.90
2023-03-14T19:35:55.006Z,6.80
2023-03-14T19:38:26.787Z,6.90
2023-03-14T19:40:59.314Z,6.90
2023-03-14T19:43:31.401Z,6.80
2023-03-14T19:46:05.335Z,6.80
2023-03-14T19:48:37.570Z,6.80
2023-03-14T19:51:09.725Z,6.80
2023-03-14T19:53:42.253Z,6.70
2023-03-14T19:56:14.109Z,6.70
2023-03-14T19:58:45.909Z,6.70
2023-03-14T20:01:17.678Z,6.70
2023-03-14T20:03:49.447Z,6.70
2023-03-14T20:06:21.660Z,6.70
2023-03-14T20:08:53.381Z,6.70
2023-03-14T20:11:25.347Z,6.70
2023-03-14T20:13:57.087Z,6.70
2023-03-14T20:16:28.861Z,6.70
2023-03-14T20:19:00.624Z,6.70
2023-03-14T20:21:32.463Z,6.70
2023-03-14T20:24:05.129Z,6.70
2023-03-14T20:26:37.305Z,6.70
2023-03-14T20:29:09.526Z,6.70
2023-03-14T20:31:42.329Z,6.70
2023-03-14T20:34:14.035Z,6.70
2023-03-14T20:36:47.829Z,6.60
2023-03-14T20:39:20.073Z,6.60
2023-03-14T20:41:51.835Z,6.50
2023-03-14T20:44:24.715Z,6.50
2023-03-14T20:46:57.796Z,6.40
2023-03-14T20:49:29.670Z,6.40
2023-03-14T20:52:01.455Z,6.30
2023-03-14T20:54:33.198Z,6.30
2023-03-14T20:57:05.138Z,6.30
2023-03-14T20:59:38.039Z,6.20
2023-03-14T21:02:10.815Z,6.20
2023-03-14T21:04:43.317Z,6.20
2023-03-14T21:07:15.226Z,6.20
2023-03-14T21:09:47.062Z,6.10
2023-03-14T21:12:18.784Z,6.10
2023-03-14T21:14:50.522Z,6.10
2023-03-14T21:17:22.231Z,6.10
2023-03-14T21:19:58.236Z,6.10
2023-03-14T21:22:30.237Z,6.00
2023-03-14T21:25:01.950Z,6.00
2023-03-14T21:27:33.761Z,6.00
2023-03-14T21:30:06.235Z,5.90
2023-03-14T21:32:38.680Z,5.90
2023-03-14T21:35:10.558Z,5.90
2023-03-14T21:37:42.350Z,5.90
2023-03-14T21:40:14.608Z,5.90
2023-03-14T21:42:46.370Z,5.90
2023-03-14T21:45:18.125Z,5.90
2023-03-14T21:47:49.842Z,5.90
2023-03-14T21:50:23.472Z,5.80
2023-03-14T21:52:58.207Z,5.80
2023-03-14T21:55:30.338Z,5.80
2023-03-14T21:58:02.698Z,5.80
2023-03-14T22:00:35.847Z,5.80
2023-03-14T22:03:13.145Z,5.80
2023-03-14T22:05:46.355Z,5.80
2023-03-14T22:08:19.851Z,5.70
2023-03-14T22:10:53.679Z,5.70
2023-03-14T22:13:25.980Z,5.70
2023-03-14T22:15:57.841Z,5.70
2023-03-14T22:18:31.333Z,5.70
2023-03-14T22:21:03.089Z,5.70
2023-03-14T22:23:34.893Z,5.70
2023-03-14T22:26:06.795Z,5.80
2023-03-14T22:28:38.555Z,5.80
2023-03-14T22:31:10.837Z,5.70
2023-03-14T22:33:42.766Z,5.70
2023-03-14T22:36:14.510Z,5.70
2023-03-14T22:38:46.302Z,5.60
2023-03-14T22:41:18.126Z,5.60
2023-03-14T22:43:50.424Z,7.70
2023-03-14T22:46:22.150Z,5.60
2023-03-14T22:48:53.938Z,5.50
2023-03-14T22:51:25.715Z,5.40
2023-03-14T22:53:57.443Z,5.40
2023-03-14T22:56:29.291Z,5.30
2023-03-14T22:59:02.428Z,5.20
2023-03-14T23:01:34.262Z,5.20
2023-03-14T23:04:06.018Z,5.20
2023-03-14T23:06:37.826Z,5.20
2023-03-14T23:09:09.585Z,5.10
2023-03-14T23:11:41.689Z,5.00
2023-03-14T23:14:13.737Z,5.00
2023-03-14T23:16:47.354Z,4.90
2023-03-14T23:19:25.532Z,4.90
2023-03-14T23:21:57.271Z,4.90
2023-03-14T23:24:29.033Z,4.90
2023-03-14T23:27:00.814Z,5.00
2023-03-14T23:29:32.703Z,5.00
2023-03-14T23:32:04.681Z,5.10
2023-03-14T23:34:37.397Z,5.10
2023-03-14T23:37:10.017Z,4.90
2023-03-14T23:39:44.921Z,4.70
2023-03-14T23:42:17.064Z,4.30
2023-03-14T23:44:48.829Z,4.20
2023-03-14T23:47:20.610Z,4.00
2023-03-14T23:49:52.323Z,4.00
2023-03-14T23:52:24.107Z,4.00
2023-03-14T23:54:55.798Z,3.90
2023-03-14T23:57:27.590Z,3.90
2023-03-14T23:59:59.298Z,3.90
